Painesville, Ohio
Current Conditions -  °F | °C
As of 7:45 PM on Sunday 23 Nov 2014 (Local Time) from KCGF Reporting Station
Overcast Overcast  
Wind Chill: 59°   Ceiling: 10000
Heat Index: 59°   Visibility: 10mi
Dew Point: 46°   Wind: 12mph
Humidity: 63%   Direction: 130°SE
Pressure: 29.58"   Gusts: 21mph
Location:  41.72°N, 81.24°W
Report Text: KCGF 240045Z 13010G18KT 10SM OVC100 15/08 A2958 RMK PRESFR
Loading
Personal Weather Stations






























Interactive Weather Map New forecast layout! Learn more

10-Day Weather Forecast

Advertisements
Track Severe Weather on mobile